createdAt,value
2024-04-19T00:00:40.358Z,3.60
2024-04-19T00:01:48.238Z,3.60
2024-04-19T00:02:56.513Z,3.60
2024-04-19T00:04:06.232Z,3.60
2024-04-19T00:05:15.997Z,3.50
2024-04-19T00:06:24.488Z,3.50
2024-04-19T00:07:35.059Z,3.40
2024-04-19T00:08:40.236Z,3.40
2024-04-19T00:09:48.594Z,3.40
2024-04-19T00:10:55.358Z,3.40
2024-04-19T00:12:00.724Z,3.40
2024-04-19T00:13:11.627Z,3.30
2024-04-19T00:14:16.167Z,3.30
2024-04-19T00:15:41.936Z,3.30
2024-04-19T00:16:47.508Z,3.40
2024-04-19T00:17:56.622Z,3.40
2024-04-19T00:19:15.986Z,3.40
2024-04-19T00:20:27.908Z,3.40
2024-04-19T00:21:48.010Z,3.50
2024-04-19T00:23:03.739Z,3.40
2024-04-19T00:24:12.666Z,3.40
2024-04-19T00:25:18.077Z,1.80
2024-04-19T00:26:23.486Z,3.50
2024-04-19T00:27:36.430Z,3.40
2024-04-19T00:28:42.004Z,3.40
2024-04-19T00:29:47.755Z,3.40
2024-04-19T00:30:55.654Z,3.40
2024-04-19T00:32:00.869Z,3.50
2024-04-19T00:33:14.082Z,3.40
2024-04-19T00:34:20.641Z,3.50
2024-04-19T00:35:27.864Z,3.50
2024-04-19T00:36:36.824Z,3.80
2024-04-19T00:37:47.772Z,3.50
2024-04-19T00:39:11.465Z,3.50
2024-04-19T00:40:16.602Z,3.60
2024-04-19T00:41:24.034Z,3.50
2024-04-19T00:42:42.903Z,3.50
2024-04-19T00:43:48.017Z,3.50
2024-04-19T00:44:52.845Z,3.50
2024-04-19T00:46:06.250Z,3.50
2024-04-19T00:47:09.818Z,4.80
2024-04-19T00:48:16.326Z,3.50
2024-04-19T00:49:47.121Z,3.50
2024-04-19T00:50:54.765Z,3.60
2024-04-19T00:52:00.476Z,3.40
2024-04-19T00:53:11.689Z,3.50
2024-04-19T00:54:23.899Z,3.50
2024-04-19T00:55:28.279Z,3.50
2024-04-19T00:56:35.457Z,3.50
2024-04-19T00:57:52.063Z,3.50
2024-04-19T00:59:03.664Z,3.50
2024-04-19T01:00:09.956Z,3.70
2024-04-19T01:01:16.939Z,3.30
2024-04-19T01:02:28.638Z,3.40
2024-04-19T01:03:58.355Z,3.30
2024-04-19T01:05:03.482Z,3.40
2024-04-19T01:06:09.958Z,3.40
2024-04-19T01:07:15.418Z,3.40
2024-04-19T01:08:29.035Z,3.40
2024-04-19T01:09:36.530Z,3.50
2024-04-19T01:10:46.272Z,3.40
2024-04-19T01:11:50.228Z,3.50
2024-04-19T01:13:00.233Z,3.50
2024-04-19T01:14:10.028Z,3.60
2024-04-19T01:15:19.269Z,3.50
2024-04-19T01:16:32.058Z,3.50
2024-04-19T01:17:40.896Z,3.50
2024-04-19T01:18:46.313Z,3.50
2024-04-19T01:19:49.110Z,3.50
2024-04-19T01:21:17.009Z,3.50
2024-04-19T01:22:23.859Z,3.50
2024-04-19T01:23:30.223Z,3.60
2024-04-19T01:24:47.529Z,3.00
2024-04-19T01:25:51.110Z,3.60
2024-04-19T01:26:59.521Z,3.50
2024-04-19T01:28:07.567Z,3.50
2024-04-19T01:29:23.656Z,3.60
2024-04-19T01:30:27.219Z,3.60
2024-04-19T01:31:35.598Z,3.50
2024-04-19T01:32:44.529Z,3.60
2024-04-19T01:33:52.418Z,3.60
2024-04-19T01:34:58.079Z,3.60
2024-04-19T01:36:12.655Z,3.50
2024-04-19T01:37:28.590Z,3.50
2024-04-19T01:38:35.981Z,3.50
2024-04-19T01:39:43.892Z,3.50
2024-04-19T01:40:52.102Z,3.50
2024-04-19T01:42:04.362Z,3.50
2024-04-19T01:43:12.528Z,3.50
2024-04-19T01:44:23.290Z,3.50
2024-04-19T01:45:31.002Z,3.50
2024-04-19T01:46:36.543Z,3.50
2024-04-19T01:47:43.874Z,3.40
2024-04-19T01:48:50.175Z,3.40
2024-04-19T01:49:55.822Z,3.40
2024-04-19T01:51:04.036Z,3.40
2024-04-19T01:52:12.322Z,3.40
2024-04-19T01:53:24.465Z,3.50
2024-04-19T01:54:30.552Z,3.40
2024-04-19T01:55:34.968Z,3.40
2024-04-19T01:56:40.293Z,3.40
2024-04-19T01:57:48.706Z,3.40
2024-04-19T01:58:52.821Z,3.50
2024-04-19T02:00:06.312Z,3.40
2024-04-19T02:01:20.357Z,3.50
2024-04-19T02:02:28.288Z,3.40
2024-04-19T02:03:35.779Z,3.40
2024-04-19T02:04:38.580Z,3.40
2024-04-19T02:05:44.519Z,3.40
2024-04-19T02:06:52.621Z,3.40
2024-04-19T02:08:12.176Z,4.90
2024-04-19T02:09:20.547Z,3.40
2024-04-19T02:10:28.698Z,3.30
2024-04-19T02:11:36.688Z,3.30
2024-04-19T02:12:52.687Z,3.30
2024-04-19T02:14:03.311Z,3.30
2024-04-19T02:15:07.286Z,3.30
2024-04-19T02:16:13.040Z,3.30
2024-04-19T02:17:23.603Z,3.30
2024-04-19T02:18:28.300Z,3.30
2024-04-19T02:19:39.828Z,3.40
2024-04-19T02:20:51.704Z,3.30
2024-04-19T02:21:56.358Z,3.30
2024-04-19T02:23:10.947Z,3.30
2024-04-19T02:24:16.344Z,3.30
2024-04-19T02:25:19.985Z,3.30
2024-04-19T02:26:30.947Z,3.30
2024-04-19T02:27:52.074Z,3.30
2024-04-19T02:29:16.006Z,3.20
2024-04-19T02:32:22.115Z,3.20
2024-04-19T02:33:25.038Z,3.30
2024-04-19T02:34:32.296Z,3.60
2024-04-19T02:35:36.190Z,3.30
2024-04-19T02:36:41.658Z,3.40
2024-04-19T02:37:48.498Z,3.30
2024-04-19T02:38:56.830Z,2.60
2024-04-19T02:40:05.421Z,3.30
2024-04-19T02:41:11.994Z,3.30
2024-04-19T02:42:17.390Z,3.20
2024-04-19T02:43:30.643Z,3.20
2024-04-19T02:44:44.473Z,3.20
2024-04-19T02:45:56.245Z,3.10
2024-04-19T02:47:05.067Z,3.10
2024-04-19T02:48:12.326Z,3.10
2024-04-19T02:49:19.814Z,3.10
2024-04-19T02:50:24.729Z,3.10
2024-04-19T02:51:32.315Z,3.10
2024-04-19T02:52:37.584Z,3.10
2024-04-19T02:53:44.778Z,3.10
2024-04-19T02:54:50.867Z,3.10
2024-04-19T02:55:53.474Z,3.00
2024-04-19T02:57:09.063Z,3.00
2024-04-19T02:58:17.031Z,3.00
2024-04-19T02:59:24.955Z,3.00
2024-04-19T03:00:32.589Z,3.00
2024-04-19T03:01:40.557Z,3.00
2024-04-19T03:02:48.950Z,3.00
2024-04-19T03:03:59.441Z,2.90
2024-04-19T03:05:04.781Z,2.90
2024-04-19T03:06:09.776Z,3.00
2024-04-19T03:07:20.506Z,3.00
2024-04-19T03:08:25.188Z,3.00
2024-04-19T03:09:33.630Z,3.00
2024-04-19T03:10:49.093Z,3.00
2024-04-19T03:11:57.445Z,2.90
2024-04-19T03:13:08.656Z,1.50
2024-04-19T03:14:14.848Z,2.80
2024-04-19T03:15:17.662Z,2.90
2024-04-19T03:16:29.667Z,2.90
2024-04-19T03:17:41.535Z,3.90
2024-04-19T03:18:48.891Z,3.00
2024-04-19T03:19:56.238Z,3.00
2024-04-19T03:21:05.504Z,2.90
2024-04-19T03:22:12.694Z,3.90
2024-04-19T03:23:20.892Z,2.90
2024-04-19T03:24:26.825Z,2.80
2024-04-19T03:25:32.387Z,2.80
2024-04-19T03:26:41.458Z,2.80
2024-04-19T03:27:49.049Z,2.80
2024-04-19T03:28:54.941Z,2.80
2024-04-19T03:30:08.547Z,2.80
2024-04-19T03:31:13.644Z,2.80
2024-04-19T03:32:28.925Z,2.90
2024-04-19T03:33:37.505Z,2.90
2024-04-19T03:34:49.079Z,5.10
2024-04-19T03:35:59.530Z,2.90
2024-04-19T03:37:04.776Z,2.80
2024-04-19T03:38:13.195Z,2.80
2024-04-19T03:39:20.539Z,2.90
2024-04-19T03:40:26.830Z,2.90
2024-04-19T03:41:39.825Z,4.30
2024-04-19T03:42:49.125Z,2.90
2024-04-19T03:44:13.016Z,3.00
2024-04-19T03:45:36.468Z,3.00
2024-04-19T03:46:44.085Z,3.00
2024-04-19T03:47:49.538Z,3.00
2024-04-19T03:49:00.758Z,3.10
2024-04-19T03:50:06.774Z,3.10
2024-04-19T03:51:12.605Z,3.70
2024-04-19T03:52:20.337Z,2.90
2024-04-19T03:53:26.907Z,3.00
2024-04-19T03:54:32.213Z,3.10
2024-04-19T03:55:34.901Z,3.10
2024-04-19T03:56:40.354Z,3.10
2024-04-19T03:57:51.713Z,3.10
2024-04-19T03:58:56.615Z,3.10
2024-04-19T04:00:04.936Z,3.20
2024-04-19T04:01:20.428Z,3.30
2024-04-19T04:02:36.857Z,4.30
2024-04-19T04:03:45.588Z,3.50
2024-04-19T04:04:48.939Z,3.40
2024-04-19T04:05:57.599Z,3.80
2024-04-19T04:07:05.314Z,4.20
2024-04-19T04:08:13.625Z,4.20
2024-04-19T04:09:17.666Z,4.10
2024-04-19T04:10:32.647Z,4.50
2024-04-19T04:11:36.288Z,5.00
2024-04-19T04:12:45.047Z,5.80
2024-04-19T04:13:53.429Z,6.40
2024-04-19T04:15:05.492Z,7.40
2024-04-19T04:16:10.847Z,7.40
2024-04-19T04:17:16.205Z,7.90
2024-04-19T04:18:20.224Z,8.30
2024-04-19T04:19:28.449Z,8.80
2024-04-19T04:20:36.486Z,9.20
2024-04-19T04:21:43.627Z,9.70
2024-04-19T04:22:49.576Z,10.20
2024-04-19T04:23:57.482Z,10.50
2024-04-19T04:25:04.381Z,10.90
2024-04-19T04:26:13.356Z,10.40
2024-04-19T04:27:20.965Z,9.70
2024-04-19T04:28:29.143Z,9.70
2024-04-19T04:29:36.361Z,8.90
2024-04-19T04:30:45.634Z,8.60
2024-04-19T04:31:49.264Z,8.10
2024-04-19T04:32:59.561Z,7.80
2024-04-19T04:34:04.819Z,7.50
2024-04-19T04:35:13.267Z,7.20
2024-04-19T04:36:18.765Z,7.00
2024-04-19T04:37:25.512Z,6.60
2024-04-19T04:38:30.721Z,6.30
2024-04-19T04:39:36.179Z,6.10
2024-04-19T04:40:41.073Z,5.70
2024-04-19T04:41:49.412Z,5.60
2024-04-19T04:42:56.335Z,5.80
2024-04-19T04:44:04.568Z,5.40
2024-04-19T04:45:16.732Z,5.40
2024-04-19T04:46:24.795Z,5.30
2024-04-19T04:47:29.623Z,5.30
2024-04-19T04:48:43.093Z,6.10
2024-04-19T04:49:45.772Z,5.20
2024-04-19T04:51:01.294Z,5.10
2024-04-19T04:52:09.011Z,5.00
2024-04-19T04:53:21.047Z,5.00
2024-04-19T04:54:26.960Z,6.60
2024-04-19T04:55:32.810Z,5.10
2024-04-19T04:56:44.931Z,5.10
2024-04-19T04:58:05.535Z,5.00
2024-04-19T04:59:13.560Z,4.90
2024-04-19T05:00:25.691Z,5.00
2024-04-19T05:01:40.575Z,5.20
2024-04-19T05:02:47.939Z,5.50
2024-04-19T05:03:53.926Z,5.80
2024-04-19T05:05:08.398Z,6.10
2024-04-19T05:06:16.454Z,6.00
2024-04-19T05:07:23.068Z,6.40
2024-04-19T05:08:28.493Z,6.80
2024-04-19T05:09:32.086Z,7.20
2024-04-19T05:10:37.449Z,7.20
2024-04-19T05:11:45.404Z,7.10
2024-04-19T05:12:52.451Z,7.10
2024-04-19T05:14:07.903Z,7.20
2024-04-19T05:15:12.807Z,7.60
2024-04-19T05:16:23.771Z,7.70
2024-04-19T05:17:26.986Z,8.00
2024-04-19T05:18:32.919Z,8.30
2024-04-19T05:19:40.895Z,8.40
2024-04-19T05:20:48.099Z,8.60
2024-04-19T05:22:00.813Z,8.70
2024-04-19T05:23:09.470Z,8.50
2024-04-19T05:24:20.607Z,8.50
2024-04-19T05:25:29.214Z,8.20
2024-04-19T05:26:39.614Z,8.00
2024-04-19T05:27:44.067Z,8.10
2024-04-19T05:28:49.353Z,8.10
2024-04-19T05:29:52.951Z,8.10
2024-04-19T05:31:00.950Z,8.10
2024-04-19T05:32:06.764Z,8.20
2024-04-19T05:33:12.124Z,8.10
2024-04-19T05:34:15.200Z,8.30
2024-04-19T05:35:28.675Z,8.70
2024-04-19T05:36:33.513Z,9.00
2024-04-19T05:37:44.501Z,9.10
2024-04-19T05:38:49.166Z,9.20
2024-04-19T05:39:57.619Z,9.40
2024-04-19T05:41:05.499Z,9.60
2024-04-19T05:42:13.099Z,9.80
2024-04-19T05:43:23.537Z,10.10
2024-04-19T05:44:33.327Z,10.10
2024-04-19T05:45:41.410Z,10.00
2024-04-19T05:46:52.430Z,9.80
2024-04-19T05:47:55.358Z,9.90
2024-04-19T05:49:00.783Z,10.00
2024-04-19T05:50:06.844Z,10.00
2024-04-19T05:51:12.154Z,9.90
2024-04-19T05:52:15.101Z,9.90
2024-04-19T05:53:25.394Z,9.80
2024-04-19T05:54:30.826Z,9.80
2024-04-19T05:55:41.441Z,9.70
2024-04-19T05:56:51.234Z,9.80
2024-04-19T05:57:56.617Z,9.70
2024-04-19T05:59:00.975Z,9.60
2024-04-19T06:00:12.687Z,9.50
2024-04-19T06:01:19.036Z,9.30
2024-04-19T06:02:24.855Z,9.20
2024-04-19T06:03:32.699Z,9.10
2024-04-19T06:04:41.501Z,9.10
2024-04-19T06:05:45.698Z,8.90
2024-04-19T06:06:56.562Z,8.90
2024-04-19T06:08:09.257Z,8.80
2024-04-19T06:09:17.396Z,8.70
2024-04-19T06:10:22.980Z,8.50
2024-04-19T06:11:33.208Z,8.60
2024-04-19T06:12:40.369Z,8.50
2024-04-19T06:13:47.364Z,8.50
2024-04-19T06:14:53.895Z,8.40
2024-04-19T06:16:05.078Z,8.50
2024-04-19T06:17:10.953Z,8.40
2024-04-19T06:18:19.155Z,8.50
2024-04-19T06:19:24.442Z,8.50
2024-04-19T06:20:32.670Z,8.50
2024-04-19T06:21:39.950Z,7.80
2024-04-19T06:22:45.311Z,8.60
2024-04-19T06:23:53.954Z,8.60
2024-04-19T06:25:05.126Z,8.50
2024-04-19T06:26:15.599Z,8.50
2024-04-19T06:27:20.932Z,8.50
2024-04-19T06:28:28.988Z,8.50
2024-04-19T06:29:37.665Z,8.60
2024-04-19T06:30:48.896Z,8.70
2024-04-19T06:31:54.788Z,8.70
2024-04-19T06:33:08.595Z,8.80
2024-04-19T06:34:17.364Z,8.80
2024-04-19T06:35:29.284Z,8.80
2024-04-19T06:36:34.791Z,9.00
2024-04-19T06:37:40.343Z,9.00
2024-04-19T06:38:43.437Z,9.30
2024-04-19T06:39:58.913Z,9.50
2024-04-19T06:41:16.247Z,9.50
2024-04-19T06:42:23.328Z,9.60
2024-04-19T06:43:35.444Z,9.60
2024-04-19T06:44:40.698Z,9.60
2024-04-19T06:45:48.696Z,9.60
2024-04-19T06:46:55.097Z,9.50
2024-04-19T06:48:03.989Z,9.60
2024-04-19T06:49:09.340Z,9.50
2024-04-19T06:50:15.286Z,9.30
2024-04-19T06:51:20.660Z,9.20
2024-04-19T06:52:26.900Z,9.10
2024-04-19T06:53:36.642Z,9.00
2024-04-19T06:54:45.572Z,9.00
2024-04-19T06:55:56.504Z,11.30
2024-04-19T06:57:03.707Z,9.00
2024-04-19T06:58:09.476Z,8.70
2024-04-19T06:59:14.839Z,8.80
2024-04-19T07:00:32.878Z,8.80
2024-04-19T07:01:45.929Z,8.80
2024-04-19T07:03:00.519Z,8.80
2024-04-19T07:04:07.058Z,8.80
2024-04-19T07:05:12.802Z,8.80
2024-04-19T07:06:23.850Z,8.70
2024-04-19T07:07:40.728Z,8.80
2024-04-19T07:08:45.347Z,8.60
2024-04-19T07:09:56.243Z,8.70
2024-04-19T07:11:02.800Z,8.70
2024-04-19T07:12:13.055Z,8.70
2024-04-19T07:13:20.963Z,8.60
2024-04-19T07:14:29.178Z,8.60
2024-04-19T07:15:37.130Z,8.60
2024-04-19T07:16:41.711Z,8.70
2024-04-19T07:17:52.649Z,8.80
2024-04-19T07:19:00.479Z,8.80
2024-04-19T07:20:09.047Z,8.80
2024-04-19T07:21:14.930Z,8.90
2024-04-19T07:22:20.525Z,8.90
2024-04-19T07:23:29.482Z,8.90
2024-04-19T07:24:39.900Z,8.90
2024-04-19T07:25:44.221Z,9.00
2024-04-19T07:26:52.774Z,9.00
2024-04-19T07:28:01.189Z,9.00
2024-04-19T07:29:09.473Z,9.10
2024-04-19T07:30:17.068Z,10.40
2024-04-19T07:31:25.003Z,9.20
2024-04-19T07:32:33.296Z,9.30
2024-04-19T07:33:44.709Z,9.40
2024-04-19T07:34:52.844Z,9.40
2024-04-19T07:35:59.264Z,9.50
2024-04-19T07:37:05.031Z,9.60
2024-04-19T07:38:14.495Z,9.50
2024-04-19T07:39:17.268Z,9.50
2024-04-19T07:40:22.847Z,9.30
2024-04-19T07:41:31.626Z,9.30
2024-04-19T07:42:37.535Z,9.40
2024-04-19T07:43:52.994Z,9.50
2024-04-19T07:45:00.994Z,9.60
2024-04-19T07:46:11.727Z,9.50
2024-04-19T07:47:16.885Z,10.60
2024-04-19T07:48:25.390Z,9.60
2024-04-19T07:49:37.275Z,9.20
2024-04-19T07:50:47.372Z,9.60
2024-04-19T07:52:00.729Z,9.90
2024-04-19T07:53:12.929Z,10.10
2024-04-19T07:54:16.398Z,10.00
2024-04-19T07:55:22.506Z,10.00
2024-04-19T07:56:29.386Z,10.00
2024-04-19T07:57:36.476Z,10.10
2024-04-19T07:58:43.940Z,10.00
2024-04-19T07:59:56.760Z,10.20
2024-04-19T08:01:01.855Z,10.00
2024-04-19T08:02:08.525Z,10.10
2024-04-19T08:03:16.674Z,9.70
2024-04-19T08:04:24.966Z,9.70
2024-04-19T08:05:34.744Z,9.40
2024-04-19T08:06:41.047Z,9.80
2024-04-19T08:07:48.676Z,10.00
2024-04-19T08:08:57.386Z,9.90
2024-04-19T08:10:03.076Z,10.00
2024-04-19T08:11:11.634Z,10.30
2024-04-19T08:12:18.718Z,10.70
2024-04-19T08:13:25.536Z,12.10
2024-04-19T08:14:32.658Z,10.80
2024-04-19T08:15:40.585Z,8.90
2024-04-19T08:16:43.352Z,11.00
2024-04-19T08:17:53.600Z,11.20
2024-04-19T08:19:09.079Z,11.30
2024-04-19T08:20:15.017Z,11.60
2024-04-19T08:21:19.602Z,12.80
2024-04-19T08:22:24.851Z,11.70
2024-04-19T08:23:33.571Z,11.80
2024-04-19T08:24:44.977Z,13.10
2024-04-19T08:25:53.228Z,11.80
2024-04-19T08:27:01.223Z,11.90
2024-04-19T08:28:08.191Z,12.10
2024-04-19T08:29:22.275Z,12.00
2024-04-19T08:30:33.611Z,12.20
2024-04-19T08:31:44.644Z,12.30
2024-04-19T08:32:51.976Z,12.10
2024-04-19T08:34:01.617Z,11.60
2024-04-19T08:35:07.156Z,11.80
2024-04-19T08:36:12.773Z,11.90
2024-04-19T08:37:20.662Z,11.90
2024-04-19T08:38:25.578Z,12.00
2024-04-19T08:39:33.030Z,11.70
2024-04-19T08:40:44.642Z,11.80
2024-04-19T08:41:52.685Z,11.70
2024-04-19T08:43:00.744Z,11.50
2024-04-19T08:44:10.924Z,11.30
2024-04-19T08:45:20.849Z,11.50
2024-04-19T08:46:31.802Z,11.40
2024-04-19T08:47:38.847Z,11.10
2024-04-19T08:48:52.293Z,11.00
2024-04-19T08:49:58.840Z,10.90
2024-04-19T08:51:05.022Z,10.80
2024-04-19T08:52:38.350Z,10.80
2024-04-19T08:53:48.214Z,11.60
2024-04-19T08:54:53.325Z,10.40
2024-04-19T08:56:17.289Z,10.40
2024-04-19T08:57:32.389Z,10.70
2024-04-19T08:58:49.847Z,11.00
2024-04-19T09:00:04.737Z,11.20
2024-04-19T09:01:17.192Z,11.30
2024-04-19T09:02:21.244Z,11.70
2024-04-19T09:03:41.145Z,11.90
2024-04-19T09:04:47.656Z,12.00
2024-04-19T09:05:53.345Z,12.10
2024-04-19T09:07:04.509Z,11.90
2024-04-19T09:08:12.013Z,11.70
2024-04-19T09:09:20.797Z,11.70
2024-04-19T09:10:36.079Z,11.90
2024-04-19T09:11:44.178Z,11.80
2024-04-19T09:12:49.559Z,11.90
2024-04-19T09:13:54.780Z,11.80
2024-04-19T09:15:04.874Z,11.70
2024-04-19T09:16:17.023Z,11.40
2024-04-19T09:17:25.041Z,11.10
2024-04-19T09:18:32.638Z,11.10
2024-04-19T09:19:41.164Z,11.30
2024-04-19T09:20:52.977Z,11.50
2024-04-19T09:22:04.757Z,11.00
2024-04-19T09:23:12.779Z,11.20
2024-04-19T09:24:21.202Z,11.20
2024-04-19T09:25:26.631Z,11.10
2024-04-19T09:26:45.571Z,11.50
2024-04-19T09:27:56.829Z,11.10
2024-04-19T09:29:08.687Z,10.90
2024-04-19T09:30:13.430Z,10.60
2024-04-19T09:31:24.897Z,10.50
2024-04-19T09:32:32.985Z,10.60
2024-04-19T09:33:44.275Z,10.60
2024-04-19T09:34:49.524Z,10.70
2024-04-19T09:36:00.387Z,10.90
2024-04-19T09:37:06.637Z,11.00
2024-04-19T09:38:13.206Z,11.20
2024-04-19T09:39:17.111Z,11.30
2024-04-19T09:40:34.507Z,11.30
2024-04-19T09:41:39.196Z,11.40
2024-04-19T09:42:56.281Z,11.20
2024-04-19T09:44:08.786Z,11.40
2024-04-19T09:45:23.842Z,11.50
2024-04-19T09:46:36.274Z,11.70
2024-04-19T09:47:48.640Z,11.90
2024-04-19T09:48:54.935Z,11.80
2024-04-19T09:50:05.767Z,11.50
2024-04-19T09:51:40.557Z,11.70
2024-04-19T09:52:50.850Z,11.90
2024-04-19T09:54:10.860Z,12.00
2024-04-19T09:55:28.462Z,12.80
2024-04-19T09:56:57.036Z,11.50
2024-04-19T09:58:11.408Z,12.30
2024-04-19T09:59:32.779Z,11.10
2024-04-19T10:00:45.390Z,11.80
2024-04-19T10:01:57.127Z,11.70
2024-04-19T10:03:12.119Z,11.90
2024-04-19T10:04:20.390Z,10.10
2024-04-19T10:05:36.701Z,11.50
2024-04-19T10:06:44.040Z,11.60
2024-04-19T10:07:56.293Z,11.30
2024-04-19T10:09:05.549Z,12.00
2024-04-19T10:10:16.551Z,12.10
2024-04-19T10:11:20.791Z,12.10
2024-04-19T10:12:32.763Z,12.40
2024-04-19T10:13:43.654Z,13.60
2024-04-19T10:14:49.087Z,12.60
2024-04-19T10:15:52.599Z,12.70
2024-04-19T10:17:00.762Z,12.50
2024-04-19T10:18:14.537Z,12.70
2024-04-19T10:19:49.264Z,12.50
2024-04-19T10:21:00.685Z,12.60
2024-04-19T10:22:09.350Z,12.80
2024-04-19T10:23:32.335Z,12.90
2024-04-19T10:24:41.480Z,12.50
2024-04-19T10:25:56.891Z,12.60
2024-04-19T10:27:04.849Z,12.70
2024-04-19T10:28:12.554Z,12.90
2024-04-19T10:29:16.747Z,12.60
2024-04-19T10:30:37.090Z,12.50
2024-04-19T10:31:49.128Z,12.50
2024-04-19T10:33:04.468Z,12.70
2024-04-19T10:34:08.694Z,12.70
2024-04-19T10:35:22.887Z,12.70
2024-04-19T10:36:40.521Z,12.50
2024-04-19T10:37:48.596Z,12.40
2024-04-19T10:38:54.669Z,12.70
2024-04-19T10:40:02.479Z,12.90
2024-04-19T10:41:08.336Z,13.00
2024-04-19T10:42:25.508Z,13.20
2024-04-19T10:43:46.869Z,13.20
2024-04-19T10:44:53.342Z,12.90
2024-04-19T10:46:04.742Z,12.70
2024-04-19T10:47:12.907Z,10.70
2024-04-19T10:48:24.874Z,12.20
2024-04-19T10:49:37.146Z,12.50
2024-04-19T10:50:48.660Z,12.40
2024-04-19T10:52:03.426Z,12.40
2024-04-19T10:53:09.220Z,12.30
2024-04-19T10:54:24.912Z,12.20
2024-04-19T10:55:37.794Z,12.20
2024-04-19T10:56:44.336Z,12.00
2024-04-19T10:57:47.251Z,12.00
2024-04-19T10:58:53.250Z,11.90
2024-04-19T11:00:03.661Z,11.80
2024-04-19T11:01:09.274Z,11.70
2024-04-19T11:02:19.153Z,10.80
2024-04-19T11:03:35.889Z,12.10
2024-04-19T11:04:41.441Z,12.10
2024-04-19T11:05:51.195Z,12.20
2024-04-19T11:06:56.934Z,12.10
2024-04-19T11:08:05.675Z,12.30
2024-04-19T11:09:20.602Z,12.10
2024-04-19T11:10:33.699Z,12.40
2024-04-19T11:11:49.434Z,12.30
2024-04-19T11:12:57.063Z,12.00
2024-04-19T11:14:05.761Z,11.50
2024-04-19T11:15:15.239Z,12.30
2024-04-19T11:16:37.419Z,12.40
2024-04-19T11:17:47.251Z,12.40
2024-04-19T11:18:55.415Z,12.40
2024-04-19T11:20:00.692Z,12.50
2024-04-19T11:21:13.385Z,12.40
2024-04-19T11:22:29.624Z,12.60
2024-04-19T11:23:37.798Z,12.90
2024-04-19T11:24:49.375Z,12.90
2024-04-19T11:26:01.570Z,12.80
2024-04-19T11:27:12.833Z,12.50
2024-04-19T11:28:25.255Z,12.60
2024-04-19T11:29:33.743Z,12.50
2024-04-19T11:30:48.011Z,12.40
2024-04-19T11:31:53.033Z,12.50
2024-04-19T11:33:01.454Z,12.60
2024-04-19T11:34:08.063Z,10.70
2024-04-19T11:35:13.708Z,12.40
2024-04-19T11:36:26.146Z,12.30
2024-04-19T11:37:37.123Z,12.40
2024-04-19T11:38:44.415Z,12.50
2024-04-19T11:39:52.589Z,12.60
2024-04-19T11:40:56.482Z,12.60
2024-04-19T11:42:02.047Z,12.40
2024-04-19T11:43:13.671Z,12.40
2024-04-19T11:44:22.027Z,12.70
2024-04-19T11:45:25.710Z,12.90
2024-04-19T11:46:38.718Z,13.10
2024-04-19T11:47:49.693Z,13.30
2024-04-19T11:48:57.999Z,13.60
2024-04-19T11:50:05.399Z,11.70
2024-04-19T11:51:21.547Z,13.50
2024-04-19T11:52:40.433Z,13.30
2024-04-19T11:53:45.681Z,12.30
2024-04-19T11:54:54.321Z,13.40
2024-04-19T11:56:05.302Z,13.50
2024-04-19T11:57:13.297Z,13.60
2024-04-19T11:58:24.931Z,13.90
2024-04-19T11:59:31.542Z,13.90
2024-04-19T12:00:37.062Z,14.00
2024-04-19T12:01:43.468Z,14.00
2024-04-19T12:02:53.890Z,13.80
2024-04-19T12:04:01.381Z,13.70
2024-04-19T12:05:10.079Z,14.00
2024-04-19T12:06:21.951Z,14.20
2024-04-19T12:07:41.841Z,14.20
2024-04-19T12:08:53.597Z,13.70
2024-04-19T12:10:11.758Z,13.70
2024-04-19T12:11:18.062Z,13.60
2024-04-19T12:14:23.692Z,14.00
2024-04-19T12:16:37.084Z,13.90
2024-04-19T12:17:46.087Z,14.20
2024-04-19T12:18:58.111Z,14.50
2024-04-19T12:20:12.056Z,14.70
2024-04-19T12:21:25.820Z,14.80
2024-04-19T12:22:42.257Z,14.90
2024-04-19T12:23:55.956Z,14.60
2024-04-19T12:25:02.944Z,14.60
2024-04-19T12:26:09.425Z,14.60
2024-04-19T12:27:21.479Z,14.60
2024-04-19T12:28:33.367Z,14.50
2024-04-19T12:29:49.028Z,14.10
2024-04-19T12:30:56.764Z,14.10
2024-04-19T12:32:07.373Z,14.10
2024-04-19T12:33:13.611Z,13.70
2024-04-19T12:34:34.228Z,13.60
2024-04-19T12:35:41.606Z,13.60
2024-04-19T12:36:57.268Z,13.50
2024-04-19T12:38:05.817Z,13.30
2024-04-19T12:39:16.463Z,13.30
2024-04-19T12:40:39.784Z,13.20
2024-04-19T12:41:49.403Z,12.90
2024-04-19T12:43:01.446Z,12.70
2024-04-19T12:44:09.802Z,12.50
2024-04-19T12:45:13.503Z,12.60
2024-04-19T12:46:23.653Z,12.20
2024-04-19T12:47:36.767Z,12.30
2024-04-19T12:48:46.432Z,12.10
2024-04-19T12:49:52.297Z,12.00
2024-04-19T12:50:58.015Z,11.90
2024-04-19T12:52:08.214Z,11.80
2024-04-19T12:53:19.435Z,11.90
2024-04-19T12:54:26.187Z,12.20
2024-04-19T12:55:37.626Z,12.40
2024-04-19T12:56:46.065Z,12.40
2024-04-19T12:57:57.925Z,12.70
2024-04-19T12:59:05.465Z,13.20
2024-04-19T13:00:10.152Z,13.50
2024-04-19T13:01:25.226Z,13.50
2024-04-19T13:02:33.238Z,13.40
2024-04-19T13:03:47.102Z,13.10
2024-04-19T13:04:51.283Z,13.30
2024-04-19T13:06:01.796Z,13.50
2024-04-19T13:07:13.651Z,13.30
2024-04-19T13:08:23.331Z,13.40
2024-04-19T13:09:35.661Z,13.50
2024-04-19T13:10:42.701Z,13.40
2024-04-19T13:11:45.647Z,13.10
2024-04-19T13:13:01.119Z,13.10
2024-04-19T13:14:09.238Z,13.00
2024-04-19T13:15:18.300Z,12.80
2024-04-19T13:16:25.197Z,13.00
2024-04-19T13:17:36.373Z,13.10
2024-04-19T13:18:42.174Z,13.20
2024-04-19T13:19:51.592Z,13.20
2024-04-19T13:20:56.210Z,13.10
2024-04-19T13:22:13.362Z,13.10
2024-04-19T13:23:21.673Z,13.00
2024-04-19T13:24:30.414Z,13.00
2024-04-19T13:25:37.575Z,13.10
2024-04-19T13:26:49.491Z,13.00
2024-04-19T13:27:57.699Z,13.10
2024-04-19T13:29:05.586Z,13.00
2024-04-19T13:30:17.176Z,11.10
2024-04-19T13:31:21.245Z,13.00
2024-04-19T13:32:37.589Z,13.00
2024-04-19T13:33:46.083Z,12.60
2024-04-19T13:34:57.467Z,12.70
2024-04-19T13:36:09.244Z,12.80
2024-04-19T13:37:18.649Z,11.70
2024-04-19T13:38:29.720Z,12.70
2024-04-19T13:39:37.706Z,12.30
2024-04-19T13:40:47.504Z,12.10
2024-04-19T13:42:01.971Z,11.80
2024-04-19T13:43:13.970Z,11.90
2024-04-19T13:44:21.623Z,12.00
2024-04-19T13:45:30.098Z,12.10
2024-04-19T13:46:41.991Z,12.40
2024-04-19T13:47:53.245Z,12.60
2024-04-19T13:49:02.270Z,12.30
2024-04-19T13:50:11.297Z,12.40
2024-04-19T13:51:16.614Z,12.10
2024-04-19T13:52:29.084Z,13.00
2024-04-19T13:53:37.161Z,11.30
2024-04-19T13:54:50.874Z,12.20
2024-04-19T13:57:21.817Z,12.30
2024-04-19T13:58:40.978Z,12.40
2024-04-19T13:59:49.560Z,12.40
2024-04-19T14:01:04.062Z,12.20
2024-04-19T14:02:08.923Z,12.20
2024-04-19T14:03:18.268Z,12.20
2024-04-19T14:04:21.554Z,12.10
2024-04-19T14:05:39.686Z,12.10
2024-04-19T14:06:43.396Z,11.90
2024-04-19T14:07:53.745Z,12.00
2024-04-19T14:09:04.849Z,12.00
2024-04-19T14:10:11.398Z,12.00
2024-04-19T14:11:17.905Z,12.00
2024-04-19T14:12:25.715Z,11.90
2024-04-19T14:13:31.362Z,11.80
2024-04-19T14:14:41.258Z,11.70
2024-04-19T14:15:45.149Z,11.80
2024-04-19T14:16:57.524Z,11.50
2024-04-19T14:18:09.463Z,11.50
2024-04-19T14:19:19.488Z,11.60
2024-04-19T14:20:22.195Z,11.60
2024-04-19T14:21:33.219Z,11.40
2024-04-19T14:22:42.175Z,11.30
2024-04-19T14:23:53.368Z,11.20
2024-04-19T14:25:01.190Z,11.20
2024-04-19T14:26:13.280Z,11.10
2024-04-19T14:27:22.221Z,11.00
2024-04-19T14:28:33.487Z,10.90
2024-04-19T14:29:41.641Z,10.80
2024-04-19T14:30:52.079Z,10.80
2024-04-19T14:31:57.498Z,10.70
2024-04-19T14:33:05.946Z,10.40
2024-04-19T14:34:17.465Z,11.60
2024-04-19T14:35:25.741Z,10.30
2024-04-19T14:36:32.383Z,9.00
2024-04-19T14:37:35.521Z,10.20
2024-04-19T14:38:40.912Z,10.00
2024-04-19T14:39:48.403Z,9.80
2024-04-19T14:40:57.703Z,9.70
2024-04-19T14:42:06.154Z,9.50
2024-04-19T14:43:20.507Z,8.90
2024-04-19T14:44:26.245Z,9.50
2024-04-19T14:45:34.422Z,9.40
2024-04-19T14:46:41.763Z,9.30
2024-04-19T14:47:49.975Z,9.30
2024-04-19T14:49:00.900Z,10.80
2024-04-19T14:50:09.405Z,9.10
2024-04-19T14:51:21.679Z,9.10
2024-04-19T14:52:30.181Z,9.10
2024-04-19T14:53:39.459Z,9.00
2024-04-19T14:54:51.810Z,9.20
2024-04-19T14:56:03.670Z,9.10
2024-04-19T14:57:17.321Z,9.50
2024-04-19T14:58:25.154Z,8.80
2024-04-19T14:59:34.061Z,8.70
2024-04-19T15:00:46.283Z,8.60
2024-04-19T15:01:53.530Z,8.50
2024-04-19T15:03:01.708Z,8.50
2024-04-19T15:04:10.212Z,9.90
2024-04-19T15:05:21.227Z,8.40
2024-04-19T15:06:40.288Z,7.80
2024-04-19T15:07:49.850Z,8.20
2024-04-19T15:08:58.187Z,8.20
2024-04-19T15:10:09.149Z,8.30
2024-04-19T15:11:17.177Z,8.20
2024-04-19T15:12:22.737Z,8.10
2024-04-19T15:13:36.553Z,8.20
2024-04-19T15:14:41.762Z,8.10
2024-04-19T15:15:53.023Z,8.10